Time;durP1;ratioP1;P1;durP2;ratioP2;P2;SDS_P1;SDS_P2;PMS_P1;PMS_P2;Temp;Humidity;BMP_temperature;BMP_pressure;BME280_temperature;BME280_humidity;BME280_pressure;Samples;Min_cycle;Max_cycle;Signal;HPM_P1;HPM_P2
2024/02/02 00:04:29;;;;;;;10.40;2.58;;;;;;;3.53;100.00;99726.78;15283742;19;20038;-53
2024/02/02 00:09:56;;;;;;;12.20;2.70;;;;;;;3.47;100.00;99727.13;15284662;19;20506;-52
2024/02/02 00:15:23;;;;;;;12.60;2.70;;;;;;;3.37;100.00;99716.09;15289530;19;20482;-53
2024/02/02 00:20:52;;;;;;;11.23;3.22;;;;;;;3.30;100.00;99720.06;15286795;19;20022;-53
2024/02/02 00:26:18;;;;;;;10.13;2.97;;;;;;;3.29;100.00;99722.81;15290674;19;20370;-52
2024/02/02 00:31:42;;;;;;;9.95;3.00;;;;;;;3.22;100.00;99711.63;15286398;19;20395;-51
2024/02/02 00:37:10;;;;;;;13.27;3.10;;;;;;;3.20;100.00;99708.19;15281274;19;20031;-53
2024/02/02 00:42:34;;;;;;;10.15;2.83;;;;;;;3.15;100.00;99715.53;15024661;19;5002416;-52
2024/02/02 00:48:00;;;;;;;13.65;3.42;;;;;;;3.12;100.00;99716.59;15284755;19;20037;-51
2024/02/02 00:53:28;;;;;;;10.43;3.15;;;;;;;3.08;100.00;99702.56;15282391;19;20032;-54
2024/02/02 00:58:53;;;;;;;14.82;3.72;;;;;;;3.12;100.00;99705.09;15282778;19;20073;-54
2024/02/02 01:04:18;;;;;;;14.23;4.05;;;;;;;3.13;100.00;99693.47;15283831;19;20026;-55
2024/02/02 01:09:46;;;;;;;15.90;3.80;;;;;;;3.21;100.00;99699.25;15279733;19;20025;-56
2024/02/02 01:15:11;;;;;;;12.43;3.50;;;;;;;3.19;100.00;99679.84;15286203;19;20018;-56
2024/02/02 01:20:36;;;;;;;15.07;4.15;;;;;;;3.15;100.00;99670.28;15286142;19;20014;-56
2024/02/02 01:26:04;;;;;;;13.35;3.95;;;;;;;3.07;100.00;99658.25;15287477;19;20028;-53
2024/02/02 01:31:29;;;;;;;13.02;3.80;;;;;;;3.07;100.00;99668.91;15283707;19;20086;-55
2024/02/02 01:36:54;;;;;;;13.73;3.40;;;;;;;3.07;100.00;99678.69;15287010;19;20018;-56
2024/02/02 01:42:22;;;;;;;11.23;3.25;;;;;;;3.06;100.00;99676.94;15283454;19;20074;-56
2024/02/02 01:47:46;;;;;;;14.43;3.40;;;;;;;3.04;100.00;99670.88;15297851;19;20093;-55
2024/02/02 01:53:12;;;;;;;10.88;2.83;;;;;;;3.03;100.00;99667.34;15286462;19;20014;-55
2024/02/02 01:58:39;;;;;;;13.80;3.40;;;;;;;2.98;100.00;99664.06;15036242;19;5001274;-54
2024/02/02 02:04:04;;;;;;;9.43;3.05;;;;;;;2.98;100.00;99665.88;15297335;19;20086;-56
2024/02/02 02:09:29;;;;;;;11.35;3.15;;;;;;;2.91;100.00;99665.31;15296106;19;20018;-55
2024/02/02 02:14:57;;;;;;;11.02;3.28;;;;;;;2.85;100.00;99671.84;15292294;19;20022;-57
2024/02/02 02:20:25;;;;;;;13.75;3.60;;;;;;;2.81;100.00;99661.44;15298016;19;20010;-53
2024/02/02 02:25:53;;;;;;;13.32;3.63;;;;;;;2.79;100.00;99672.19;15297482;19;20014;-55
2024/02/02 02:31:19;;;;;;;11.32;3.65;;;;;;;2.73;100.00;99672.47;15297924;19;20027;-56
2024/02/02 02:36:43;;;;;;;14.00;3.45;;;;;;;2.68;100.00;99670.06;15303071;19;20022;-53
2024/02/02 02:42:10;;;;;;;13.00;3.58;;;;;;;2.67;100.00;99672.81;15296659;19;20074;-56
2024/02/02 02:47:36;;;;;;;11.50;3.58;;;;;;;2.65;100.00;99675.53;15294887;19;20010;-55
2024/02/02 02:53:00;;;;;;;14.80;3.88;;;;;;;2.65;100.00;99664.91;15285962;19;20019;-52
2024/02/02 02:58:28;;;;;;;13.73;3.65;;;;;;;2.70;100.00;99662.88;15293962;19;20027;-53
2024/02/02 03:03:52;;;;;;;11.73;3.75;;;;;;;2.70;100.00;99668.19;15294470;19;20035;-52
2024/02/02 03:09:17;;;;;;;9.65;3.55;;;;;;;2.70;100.00;99660.22;15292928;19;20032;-50
2024/02/02 03:14:44;;;;;;;9.38;3.28;;;;;;;2.70;100.00;99649.56;15294278;19;20017;-54
2024/02/02 03:20:11;;;;;;;10.45;3.90;;;;;;;2.68;100.00;99638.13;15288873;19;20699;-51
2024/02/02 03:25:35;;;;;;;12.82;4.05;;;;;;;2.64;100.00;99633.94;15295759;19;20027;-53
2024/02/02 03:31:03;;;;;;;12.18;3.92;;;;;;;2.58;100.00;99640.44;15300949;19;20081;-54
2024/02/02 03:36:28;;;;;;;13.40;4.25;;;;;;;2.52;100.00;99632.75;15311038;19;20018;-56
2024/02/02 03:41:53;;;;;;;12.82;3.83;;;;;;;2.51;100.00;99646.16;15291783;19;20018;-57
2024/02/02 03:47:21;;;;;;;10.23;3.60;;;;;;;2.51;100.00;99631.03;15291968;19;20014;-57
2024/02/02 03:52:46;;;;;;;11.23;3.80;;;;;;;2.54;100.00;99630.88;15286637;19;20030;-57
2024/02/02 03:58:10;;;;;;;10.77;4.30;;;;;;;2.56;100.00;99642.31;15285375;19;20039;-55
2024/02/02 04:03:45;;;;;;;13.40;3.88;;;;;;;2.57;100.00;99648.47;15274767;19;20808;-54
2024/02/02 04:09:11;;;;;;;12.40;3.75;;;;;;;2.58;100.00;99642.22;15278727;19;20035;-53
2024/02/02 04:14:35;;;;;;;11.20;3.55;;;;;;;2.60;100.00;99651.00;15281653;19;20010;-54
2024/02/02 04:20:03;;;;;;;10.20;3.50;;;;;;;2.59;100.00;99642.13;15286401;19;20364;-55
2024/02/02 04:25:28;;;;;;;12.80;3.22;;;;;;;2.56;100.00;99650.28;15288222;19;20018;-52
2024/02/02 04:30:53;;;;;;;11.48;3.13;;;;;;;2.57;100.00;99657.34;15277167;19;20390;-54
2024/02/02 04:36:21;;;;;;;12.93;3.17;;;;;;;2.58;100.00;99658.19;15283159;19;20026;-53
2024/02/02 04:41:45;;;;;;;9.63;3.22;;;;;;;2.56;100.00;99654.75;15280346;19;20090;-56
2024/02/02 04:47:10;;;;;;;12.00;3.30;;;;;;;2.57;100.00;99656.47;15283002;19;20082;-55
2024/02/02 04:52:38;;;;;;;13.43;3.13;;;;;;;2.58;100.00;99672.38;15277840;19;20038;-55
2024/02/02 04:58:03;;;;;;;10.45;3.47;;;;;;;2.60;100.00;99649.16;15280723;19;20031;-55
2024/02/02 05:03:35;;;;;;;12.73;4.00;;;;;;;2.60;100.00;99635.03;15277999;19;20085;-60
2024/02/02 05:09:02;;;;;;;13.88;3.95;;;;;;;2.59;100.00;99635.97;15281963;19;20031;-51
2024/02/02 05:14:27;;;;;;;13.07;3.88;;;;;;;2.57;100.00;99629.84;15279439;19;20039;-51
2024/02/02 05:19:52;;;;;;;15.77;3.90;;;;;;;2.60;100.00;99632.38;15284921;19;20488;-50
2024/02/02 05:25:19;;;;;;;10.52;3.95;;;;;;;2.61;100.00;99626.09;15278702;19;20020;-55
2024/02/02 05:30:44;;;;;;;8.75;3.38;;;;;;;2.60;100.00;99619.91;15275199;19;20019;-55
2024/02/02 05:36:09;;;;;;;11.98;3.80;;;;;;;2.61;100.00;99626.09;15280908;19;20469;-49
2024/02/02 05:41:37;;;;;;;13.13;3.70;;;;;;;2.60;100.00;99619.06;15280753;19;20015;-49
2024/02/02 05:47:02;;;;;;;12.07;4.00;;;;;;;2.59;100.00;99633.31;15283967;19;20039;-50
2024/02/02 05:52:27;;;;;;;14.10;3.90;;;;;;;2.58;100.00;99642.22;15279867;19;20377;-49
2024/02/02 05:57:54;;;;;;;9.82;3.75;;;;;;;2.58;100.00;99648.41;15280052;19;20014;-51
2024/02/02 06:03:25;;;;;;;10.90;4.10;;;;;;;2.57;100.00;99643.16;15280080;19;20758;-51
2024/02/02 06:08:49;;;;;;;10.80;4.07;;;;;;;2.57;100.00;99628.06;15278480;19;20011;-53
2024/02/02 06:14:20;;;;;;;13.38;4.80;;;;;;;2.57;100.00;99613.91;15280649;19;20082;-54
2024/02/02 06:19:44;;;;;;;12.82;4.60;;;;;;;2.59;100.00;99601.38;15280660;19;20022;-53
2024/02/02 06:25:10;;;;;;;12.90;4.30;;;;;;;2.60;100.00;99598.63;15279048;19;20487;-53
2024/02/02 06:30:38;;;;;;;12.15;4.32;;;;;;;2.62;100.00;99596.75;15288608;19;20045;-52
2024/02/02 06:36:03;;;;;;;14.90;4.45;;;;;;;2.66;100.00;99599.25;15299402;19;20098;-53
2024/02/02 06:41:29;;;;;;;10.65;4.35;;;;;;;2.66;100.00;99592.09;15295370;19;20106;-49
2024/02/02 06:46:56;;;;;;;9.52;4.30;;;;;;;2.68;100.00;99594.72;15295881;19;20053;-53
2024/02/02 06:52:21;;;;;;;15.02;4.45;;;;;;;2.70;100.00;99593.69;15293075;19;20025;-49
2024/02/02 06:57:47;;;;;;;9.52;4.70;;;;;;;2.73;100.00;99587.31;15294778;19;20014;-52
2024/02/02 07:03:21;;;;;;;11.60;3.97;;;;;;;2.73;100.00;99580.22;15285889;19;20041;-49
2024/02/02 07:08:46;;;;;;;10.05;4.13;;;;;;;2.76;100.00;99577.38;15291392;19;20015;-50
2024/02/02 07:14:18;;;;;;;10.68;4.30;;;;;;;2.76;100.00;99561.41;15291457;19;20362;-52
2024/02/02 07:19:48;;;;;;;10.05;4.10;;;;;;;2.81;100.00;99569.16;15290140;19;20018;-52
2024/02/02 07:25:15;;;;;;;12.25;4.40;;;;;;;2.89;100.00;99572.25;15294556;19;20082;-53
2024/02/02 07:30:51;;;;;;;11.20;4.40;;;;;;;2.99;100.00;99583.25;15292243;19;20436;-51
2024/02/02 07:36:22;;;;;;;12.75;4.55;;;;;;;3.08;100.00;99593.41;15287338;19;20047;-52
2024/02/02 07:41:47;;;;;;;9.65;4.22;;;;;;;3.18;100.00;99592.88;15285989;19;20100;-52
2024/02/02 07:47:12;;;;;;;12.82;4.63;;;;;;;3.31;100.00;99587.72;15293245;19;20014;-53
2024/02/02 07:52:39;;;;;;;12.55;4.25;;;;;;;3.42;100.00;99600.44;15288595;19;20027;-54
2024/02/02 07:58:04;;;;;;;11.32;4.32;;;;;;;3.51;100.00;99607.91;15291085;19;20522;-51
2024/02/02 08:03:36;;;;;;;12.80;4.20;;;;;;;3.67;100.00;99622.09;15286284;19;20018;-58
2024/02/02 08:09:04;;;;;;;11.95;3.72;;;;;;;3.80;100.00;99624.06;15286612;19;20014;-59
2024/02/02 08:14:32;;;;;;;4.93;1.70;;;;;;;4.00;100.00;99626.41;15289800;19;20101;-58
2024/02/02 08:19:57;;;;;;;7.65;1.90;;;;;;;4.22;100.00;99616.31;15287176;19;20022;-61
2024/02/02 08:25:25;;;;;;;5.40;2.05;;;;;;;4.22;100.00;99610.97;15288581;19;20115;-62
2024/02/02 08:30:50;;;;;;;8.10;2.20;;;;;;;4.11;100.00;99587.59;15288427;19;20463;-61
2024/02/02 08:36:18;;;;;;;6.82;2.22;;;;;;;4.01;100.00;99576.59;15285856;19;20493;-62
2024/02/02 08:41:45;;;;;;;7.40;2.33;;;;;;;3.97;100.00;99543.94;15282795;19;20489;-61
2024/02/02 08:47:11;;;;;;;10.07;2.85;;;;;;;3.98;100.00;99540.31;15289319;19;20042;-63
2024/02/02 08:52:38;;;;;;;7.82;2.40;;;;;;;4.03;100.00;99520.53;15282990;19;20463;-62
2024/02/02 08:58:17;;;;;;;10.27;2.50;;;;;;;4.08;100.00;99491.75;15289503;19;20418;-59
2024/02/02 09:03:49;;;;;;;7.80;2.40;;;;;;;4.08;100.00;99505.09;15284968;19;20003;-61
2024/02/02 09:09:17;;;;;;;8.02;2.95;;;;;;;4.09;100.00;99522.81;15288564;19;20355;-60
2024/02/02 09:14:44;;;;;;;7.00;2.30;;;;;;;4.10;100.00;99498.72;15279765;19;20039;-63
2024/02/02 09:20:20;;;;;;;8.65;2.45;;;;;;;4.16;100.00;99490.34;15285008;19;20018;-63
2024/02/02 09:25:50;;;;;;;8.00;2.20;;;;;;;4.27;100.00;99476.34;15282387;19;20031;-63
2024/02/02 09:31:25;;;;;;;7.63;2.20;;;;;;;4.43;100.00;99454.03;15285566;19;20014;-64
2024/02/02 09:36:50;;;;;;;7.32;2.10;;;;;;;4.54;100.00;99440.03;15283172;19;20078;-61
2024/02/02 09:42:40;;;;;;;6.80;1.92;;;;;;;4.64;100.00;99435.81;15273435;19;20487;-63
2024/02/02 09:48:20;;;;;;;4.87;1.80;;;;;;;4.71;100.00;99421.09;15287549;19;20027;-62
2024/02/02 09:54:20;;;;;;;5.82;1.60;;;;;;;4.78;100.00;99416.22;15284325;19;20582;-64
2024/02/02 10:00:00;;;;;;;5.38;1.88;;;;;;;4.84;100.00;99407.81;15282747;19;20081;-62
2024/02/02 10:05:42;;;;;;;7.28;1.75;;;;;;;4.94;100.00;99400.91;15295288;19;20035;-62
2024/02/02 10:11:25;;;;;;;6.65;1.73;;;;;;;5.05;100.00;99386.00;15297688;19;20435;-62
2024/02/02 10:17:01;;;;;;;5.07;1.55;;;;;;;5.15;100.00;99380.91;15291381;19;20097;-62
2024/02/02 10:22:49;;;;;;;7.97;1.52;;;;;;;5.21;100.00;99376.00;15294965;19;20579;-62
2024/02/02 10:28:32;;;;;;;6.60;1.50;;;;;;;5.33;100.00;99344.91;15296934;19;20018;-61
2024/02/02 10:34:14;;;;;;;8.95;1.90;;;;;;;5.44;100.00;99338.84;15295492;19;20031;-62
2024/02/02 10:39:53;;;;;;;6.20;1.33;;;;;;;5.53;100.00;99346.22;15293338;19;20337;-60
2024/02/02 10:45:28;;;;;;;4.78;1.27;;;;;;;5.63;100.00;99358.94;15293918;19;20037;-61
2024/02/02 10:51:02;;;;;;;4.80;1.30;;;;;;;5.70;100.00;99354.88;15285483;19;20475;-60
2024/02/02 10:56:48;;;;;;;4.28;1.40;;;;;;;5.76;100.00;99327.72;15034299;19;5001308;-64
2024/02/02 11:02:31;;;;;;;4.90;1.70;;;;;;;5.81;100.00;99316.69;15291397;19;20033;-63
2024/02/02 11:08:01;;;;;;;4.70;1.40;;;;;;;5.89;100.00;99306.28;15297007;19;20361;-62
2024/02/02 11:13:39;;;;;;;4.78;1.20;;;;;;;5.95;100.00;99296.97;15287403;19;20463;-63
2024/02/02 11:19:20;;;;;;;3.08;1.20;;;;;;;6.04;100.00;99274.97;15298683;19;20021;-58
2024/02/02 11:24:58;;;;;;;5.35;1.42;;;;;;;6.14;100.00;99262.63;15290527;19;20018;-64
2024/02/02 11:30:52;;;;;;;4.63;1.40;;;;;;;6.13;100.00;99249.34;15291557;19;20026;-62
2024/02/02 11:36:34;;;;;;;7.60;1.70;;;;;;;6.13;100.00;99234.16;15287534;19;20026;-63
2024/02/02 11:42:01;;;;;;;6.90;1.53;;;;;;;6.17;100.00;99224.06;15290067;19;20082;-64
2024/02/02 11:47:28;;;;;;;4.97;1.40;;;;;;;6.26;100.00;99222.53;15294294;19;20086;-63
2024/02/02 11:53:04;;;;;;;5.28;1.40;;;;;;;6.35;100.00;99218.34;15282263;19;20022;-61
2024/02/02 11:58:29;;;;;;;4.22;1.35;;;;;;;6.36;100.00;99207.50;15294074;19;20018;-64
2024/02/02 12:04:16;;;;;;;5.47;1.60;;;;;;;6.40;100.00;99203.63;15282768;19;20019;-61
2024/02/02 12:09:47;;;;;;;4.60;1.38;;;;;;;6.43;100.00;99194.50;15289816;19;20023;-62
2024/02/02 12:15:13;;;;;;;3.60;1.20;;;;;;;6.42;100.00;99190.97;15284922;19;20842;-64
2024/02/02 12:20:39;;;;;;;4.60;1.55;;;;;;;6.46;100.00;99165.69;15290129;19;20019;-63
2024/02/02 12:26:07;;;;;;;5.50;1.50;;;;;;;6.53;100.00;99182.13;15282963;19;20039;-61
2024/02/02 12:31:32;;;;;;;5.25;1.58;;;;;;;6.59;100.00;99164.75;15287674;19;20715;-63
2024/02/02 12:36:58;;;;;;;5.82;1.50;;;;;;;6.63;100.00;99161.72;15285916;19;20022;-64
2024/02/02 12:42:27;;;;;;;5.13;1.48;;;;;;;6.68;100.00;99153.31;15285433;19;20026;-62
2024/02/02 12:47:52;;;;;;;4.85;1.50;;;;;;;6.70;100.00;99151.38;15288215;19;20365;-62
2024/02/02 12:53:17;;;;;;;4.80;1.63;;;;;;;6.73;100.00;99128.88;15285254;19;20018;-62
2024/02/02 12:58:44;;;;;;;7.30;1.55;;;;;;;6.78;100.00;99132.88;15284477;19;20015;-62
2024/02/02 13:04:17;;;;;;;6.22;1.55;;;;;;;6.93;100.00;99146.06;15279474;19;20018;-61
2024/02/02 13:09:51;;;;;;;3.55;1.38;;;;;;;7.03;100.00;99122.09;15280129;19;20035;-62
2024/02/02 13:15:21;;;;;;;3.83;1.48;;;;;;;7.16;100.00;99114.78;15282623;19;20438;-59
2024/02/02 13:20:49;;;;;;;7.57;1.52;;;;;;;7.32;100.00;99121.59;15287373;19;20039;-63
2024/02/02 13:26:14;;;;;;;4.97;1.50;;;;;;;7.44;100.00;99122.44;15281259;19;20041;-63
2024/02/02 13:31:43;;;;;;;4.13;1.40;;;;;;;7.59;100.00;99117.66;15281195;19;20018;-63
2024/02/02 13:37:24;;;;;;;4.45;1.50;;;;;;;7.68;100.00;99101.66;15283953;19;20018;-62
2024/02/02 13:42:53;;;;;;;3.55;1.50;;;;;;;7.71;100.00;99074.56;15281101;19;20732;-60
2024/02/02 13:48:23;;;;;;;6.20;1.52;;;;;;;7.73;100.00;99066.41;15289280;19;20468;-62
2024/02/02 13:53:49;;;;;;;6.93;1.80;;;;;;;7.75;100.00;99058.22;15282834;19;20078;-62
2024/02/02 13:59:14;;;;;;;5.65;1.58;;;;;;;7.78;100.00;99055.31;15282493;19;20011;-61
2024/02/02 14:04:48;;;;;;;5.85;1.70;;;;;;;7.84;100.00;99044.91;15278747;19;20409;-63
2024/02/02 14:10:16;;;;;;;7.13;1.92;;;;;;;7.89;100.00;99047.22;15280474;19;20371;-62
2024/02/02 14:15:48;;;;;;;5.60;1.75;;;;;;;7.95;100.00;99038.63;15282795;19;20031;-63
2024/02/02 14:21:16;;;;;;;7.95;2.22;;;;;;;8.01;100.00;99037.25;15279249;19;20033;-58
2024/02/02 14:26:40;;;;;;;6.68;1.88;;;;;;;8.02;100.00;99042.50;15279878;19;20015;-58
2024/02/02 14:32:06;;;;;;;3.75;1.50;;;;;;;8.04;100.00;99044.22;15270678;19;20032;-58
2024/02/02 14:37:33;;;;;;;5.82;1.77;;;;;;;8.06;100.00;99040.41;15280581;19;20363;-57
2024/02/02 14:42:59;;;;;;;5.22;1.70;;;;;;;8.05;100.00;99019.94;15274783;19;20433;-57
2024/02/02 14:48:23;;;;;;;7.82;2.08;;;;;;;8.06;100.00;99021.63;15282413;19;20502;-55
2024/02/02 14:53:50;;;;;;;5.25;1.83;;;;;;;8.04;100.00;99012.84;15299489;19;20039;-57
2024/02/02 14:59:20;;;;;;;6.70;1.70;;;;;;;7.98;100.00;99010.72;15345063;19;20045;-58
2024/02/02 15:04:53;;;;;;;6.47;2.00;;;;;;;7.86;100.00;99021.50;15284762;19;20048;-58
2024/02/02 15:10:22;;;;;;;5.55;2.58;;;;;;;7.78;100.00;99029.31;15292160;19;20109;-58
2024/02/02 15:15:47;;;;;;;4.68;1.63;;;;;;;7.69;100.00;99014.88;15291965;19;20427;-58
2024/02/02 15:21:12;;;;;;;5.82;1.60;;;;;;;7.63;100.00;99004.63;15292536;19;20085;-58
2024/02/02 15:26:44;;;;;;;5.03;1.60;;;;;;;7.55;100.00;99007.13;15292433;19;20023;-58
2024/02/02 15:32:09;;;;;;;5.55;1.80;;;;;;;7.45;100.00;98990.09;14779787;19;10000685;-58
2024/02/02 15:37:34;;;;;;;3.88;1.40;;;;;;;7.39;100.00;98980.72;15285685;19;20031;-57
2024/02/02 15:43:01;;;;;;;4.22;1.50;;;;;;;7.34;100.00;98978.44;15289542;19;20010;-56
2024/02/02 15:48:26;;;;;;;5.40;1.58;;;;;;;7.32;100.00;98980.38;15292122;19;20041;-57
2024/02/02 15:53:52;;;;;;;4.65;1.60;;;;;;;7.27;100.00;98971.03;15290245;19;20733;-57
2024/02/02 15:59:19;;;;;;;7.57;2.05;;;;;;;7.26;100.00;98975.50;15289471;19;20125;-57
2024/02/02 16:04:44;;;;;;;5.97;1.70;;;;;;;7.25;100.00;98968.44;15286764;19;20595;-56
2024/02/02 16:10:08;;;;;;;5.60;1.67;;;;;;;7.21;100.00;98950.94;15283033;19;20015;-57
2024/02/02 16:15:35;;;;;;;4.68;1.50;;;;;;;7.18;100.00;98935.09;15285841;19;20090;-54
2024/02/02 16:21:00;;;;;;;6.00;1.50;;;;;;;7.20;100.00;98939.34;15282609;19;20023;-57
2024/02/02 16:26:25;;;;;;;5.25;1.48;;;;;;;7.20;100.00;98934.00;15288072;19;20476;-58
2024/02/02 16:31:54;;;;;;;6.28;1.50;;;;;;;7.20;100.00;98942.03;15287069;19;20027;-55
2024/02/02 16:37:20;;;;;;;5.65;1.60;;;;;;;7.16;100.00;98931.69;15286191;19;20086;-54
2024/02/02 16:42:45;;;;;;;3.78;1.40;;;;;;;7.12;100.00;98919.53;15279748;19;20014;-57
2024/02/02 16:48:13;;;;;;;5.07;1.40;;;;;;;7.16;100.00;98937.94;15285814;19;20094;-56
2024/02/02 16:53:37;;;;;;;3.95;1.60;;;;;;;7.12;100.00;98938.28;15282484;19;20015;-57
2024/02/02 16:59:02;;;;;;;6.78;1.55;;;;;;;7.09;100.00;98929.53;15286150;19;20094;-55
2024/02/02 17:04:29;;;;;;;4.65;1.60;;;;;;;7.12;100.00;98939.16;15279703;19;20042;-55
2024/02/02 17:09:54;;;;;;;3.13;1.40;;;;;;;7.15;100.00;98940.72;15287093;19;20082;-56
2024/02/02 17:15:19;;;;;;;6.10;2.13;;;;;;;7.15;100.00;98943.41;15278992;19;20023;-56
2024/02/02 17:20:46;;;;;;;4.60;1.60;;;;;;;7.17;100.00;98938.75;15285767;19;20011;-55
2024/02/02 17:26:12;;;;;;;4.35;1.52;;;;;;;7.16;100.00;98929.03;15282836;19;20014;-56
2024/02/02 17:31:37;;;;;;;3.92;1.40;;;;;;;7.05;100.00;98920.03;15283069;19;20086;-56
2024/02/02 17:37:04;;;;;;;4.85;1.55;;;;;;;7.02;100.00;98919.44;15281640;19;20028;-56
2024/02/02 17:42:29;;;;;;;3.45;1.60;;;;;;;7.11;100.00;98924.03;15281606;19;20034;-56
2024/02/02 17:47:53;;;;;;;5.68;1.58;;;;;;;7.12;100.00;98908.81;15281205;19;20078;-55
2024/02/02 17:53:21;;;;;;;4.10;1.60;;;;;;;7.07;100.00;98920.78;15278685;19;20090;-57
2024/02/02 17:58:54;;;;;;;3.45;1.50;;;;;;;7.11;100.00;98933.94;15284223;19;20369;-56
2024/02/02 18:04:26;;;;;;;5.88;1.80;;;;;;;6.97;100.00;98954.66;15283378;19;20026;-58
2024/02/02 18:09:53;;;;;;;5.15;1.60;;;;;;;6.78;100.00;98955.28;15273812;19;20097;-55
2024/02/02 18:15:18;;;;;;;4.32;1.50;;;;;;;6.72;100.00;98956.66;15275958;19;20570;-54
2024/02/02 18:20:44;;;;;;;4.75;1.60;;;;;;;6.71;100.00;98959.41;15274864;19;20057;-58
2024/02/02 18:26:11;;;;;;;4.13;1.40;;;;;;;6.65;100.00;98957.25;15295192;19;20488;-58
2024/02/02 18:31:36;;;;;;;3.72;1.50;;;;;;;6.59;100.00;98971.97;15300610;19;20044;-58
2024/02/02 18:37:00;;;;;;;4.55;1.58;;;;;;;6.52;100.00;98963.59;15293675;19;20073;-55
2024/02/02 18:42:27;;;;;;;4.32;1.25;;;;;;;6.48;100.00;98962.97;15292885;19;20015;-55
2024/02/02 18:47:52;;;;;;;4.78;1.60;;;;;;;6.44;100.00;98977.56;15297796;19;20537;-56
2024/02/02 18:53:17;;;;;;;3.25;1.55;;;;;;;6.39;100.00;98977.09;15287323;19;20086;-56
2024/02/02 18:58:47;;;;;;;4.10;1.50;;;;;;;6.43;100.00;98983.91;15293515;19;20367;-53
2024/02/02 19:04:13;;;;;;;3.85;1.52;;;;;;;6.37;100.00;98989.75;15284577;19;20037;-55
2024/02/02 19:09:38;;;;;;;5.93;1.55;;;;;;;6.46;100.00;98986.34;15291213;19;20014;-57
2024/02/02 19:15:06;;;;;;;3.78;1.40;;;;;;;6.58;100.00;98992.56;15291935;19;20434;-55
2024/02/02 19:20:32;;;;;;;3.53;1.40;;;;;;;6.64;100.00;98993.91;15290819;19;20018;-56
2024/02/02 19:25:58;;;;;;;3.10;1.30;;;;;;;6.74;100.00;99010.94;15284426;19;20014;-55
2024/02/02 19:31:35;;;;;;;5.40;1.48;;;;;;;6.84;100.00;98997.63;15290873;19;20023;-54
2024/02/02 19:37:01;;;;;;;4.05;1.40;;;;;;;6.94;100.00;98987.03;15287563;19;20014;-56
2024/02/02 19:42:27;;;;;;;2.60;1.30;;;;;;;7.00;100.00;98986.53;15291202;19;20018;-52
2024/02/02 19:47:56;;;;;;;5.82;1.60;;;;;;;7.01;100.00;98974.84;15289832;19;20014;-57
2024/02/02 19:53:21;;;;;;;4.68;1.40;;;;;;;7.06;100.00;98985.19;15286218;19;20027;-57
2024/02/02 19:58:54;;;;;;;2.63;1.30;;;;;;;7.21;100.00;98991.13;15283530;19;20033;-57
2024/02/02 20:04:28;;;;;;;3.65;1.40;;;;;;;7.34;100.00;99009.72;15288035;19;20029;-57
2024/02/02 20:09:53;;;;;;;6.68;1.40;;;;;;;7.39;100.00;99016.41;15285284;19;20084;-57
2024/02/02 20:15:18;;;;;;;3.95;1.50;;;;;;;7.51;100.00;98998.47;15287686;19;20022;-57
2024/02/02 20:20:48;;;;;;;5.28;1.40;;;;;;;7.66;100.00;99028.53;15286477;19;20018;-56
2024/02/02 20:26:14;;;;;;;5.50;1.50;;;;;;;7.72;100.00;99025.31;15281663;19;20015;-57
2024/02/02 20:31:44;;;;;;;5.78;1.60;;;;;;;7.77;100.00;99037.50;15287543;19;20024;-57
2024/02/02 20:37:11;;;;;;;4.65;1.80;;;;;;;7.79;100.00;99033.72;15282359;19;20416;-55
2024/02/02 20:42:36;;;;;;;3.88;1.50;;;;;;;7.93;100.00;99039.75;15286434;19;20031;-56
2024/02/02 20:48:00;;;;;;;5.07;1.63;;;;;;;7.96;100.00;99018.88;15289696;19;20031;-57
2024/02/02 20:53:28;;;;;;;4.43;1.83;;;;;;;7.97;100.00;99017.06;15286850;19;20371;-55
2024/02/02 20:58:52;;;;;;;6.00;2.00;;;;;;;8.01;100.00;99042.63;15281571;19;20027;-55
2024/02/02 21:04:17;;;;;;;3.33;1.70;;;;;;;8.02;100.00;99010.31;15277475;19;20035;-54
2024/02/02 21:09:45;;;;;;;5.10;2.42;;;;;;;8.05;100.00;99025.28;15284912;19;20014;-54
2024/02/02 21:15:11;;;;;;;5.97;2.03;;;;;;;8.08;100.00;99021.50;15280892;19;20093;-52
2024/02/02 21:20:42;;;;;;;5.50;2.28;;;;;;;8.02;100.00;99006.75;15283098;19;20539;-53
2024/02/02 21:26:09;;;;;;;4.45;2.35;;;;;;;8.02;100.00;99018.38;15282199;19;20086;-55
2024/02/02 21:31:35;;;;;;;6.25;2.30;;;;;;;8.04;100.00;99020.91;15275726;19;20054;-54
2024/02/02 21:37:01;;;;;;;6.75;2.72;;;;;;;8.07;100.00;98996.50;15271200;19;20022;-55
2024/02/02 21:42:28;;;;;;;3.85;2.65;;;;;;;8.07;100.00;99006.38;15273228;19;20031;-56
2024/02/02 21:47:53;;;;;;;3.92;2.72;;;;;;;8.07;100.00;99001.88;15281869;19;20022;-54
2024/02/02 21:53:19;;;;;;;6.10;3.28;;;;;;;8.08;100.00;99027.72;15279401;19;20027;-56
2024/02/02 21:58:48;;;;;;;3.58;2.45;;;;;;;8.11;100.00;98980.97;15282440;19;20010;-56
2024/02/02 22:04:19;;;;;;;3.70;2.80;;;;;;;8.13;100.00;99000.50;15286214;19;20018;-58
2024/02/02 22:09:44;;;;;;;4.33;2.80;;;;;;;8.17;100.00;99008.16;15297903;19;20027;-54
2024/02/02 22:15:12;;;;;;;4.18;3.00;;;;;;;8.23;100.00;99003.25;15300029;19;20026;-57
2024/02/02 22:20:37;;;;;;;4.97;3.45;;;;;;;8.24;100.00;98989.69;15296542;19;20014;-58
2024/02/02 22:26:02;;;;;;;5.93;3.08;;;;;;;8.25;100.00;98988.69;15293963;19;20007;-54
2024/02/02 22:31:31;;;;;;;3.35;3.05;;;;;;;8.27;100.00;98984.06;15296012;19;20011;-60
2024/02/02 22:37:02;;;;;;;4.20;3.03;;;;;;;8.30;100.00;98997.19;15287984;19;20018;-53
2024/02/02 22:42:28;;;;;;;4.25;2.95;;;;;;;8.36;100.00;98986.91;15293479;19;20363;-56
2024/02/02 22:47:56;;;;;;;6.07;3.47;;;;;;;8.39;100.00;98970.56;15296628;19;20033;-55
2024/02/02 22:53:21;;;;;;;4.28;3.10;;;;;;;8.40;100.00;98989.19;15290271;19;20035;-58
2024/02/02 22:58:46;;;;;;;5.03;3.10;;;;;;;8.40;100.00;98969.56;15291776;19;20037;-58
2024/02/02 23:04:14;;;;;;;5.05;3.28;;;;;;;8.40;100.00;98991.06;15288735;19;20027;-61
2024/02/02 23:09:38;;;;;;;4.20;3.20;;;;;;;8.40;100.00;98951.63;15286161;19;20531;-56
2024/02/02 23:15:03;;;;;;;3.83;3.10;;;;;;;8.45;100.00;98997.72;15295479;19;20392;-58
2024/02/02 23:20:30;;;;;;;3.53;3.00;;;;;;;8.45;100.00;98962.81;15289908;19;20396;-57
2024/02/02 23:25:56;;;;;;;3.28;2.78;;;;;;;8.47;100.00;98985.03;15289700;19;20085;-57
2024/02/02 23:31:20;;;;;;;4.03;2.67;;;;;;;8.43;100.00;98985.38;15292761;19;20032;-56
2024/02/02 23:36:49;;;;;;;3.22;2.70;;;;;;;8.45;100.00;98994.16;15289119;19;20018;-57
2024/02/02 23:42:16;;;;;;;3.67;2.95;;;;;;;8.46;100.00;99011.97;15287570;19;20109;-56
2024/02/02 23:47:41;;;;;;;3.63;2.80;;;;;;;8.43;100.00;98993.44;15292569;19;20027;-59
2024/02/02 23:53:08;;;;;;;3.17;2.80;;;;;;;8.47;100.00;99005.63;15285076;19;20082;-55
2024/02/02 23:58:34;;;;;;;4.07;2.80;;;;;;;8.45;100.00;98994.16;15293397;19;20132;-55
